Time;durP1;ratioP1;P1;durP2;ratioP2;P2;SDS_P1;SDS_P2;PMS_P1;PMS_P2;Temp;Humidity;BMP_temperature;BMP_pressure;BME280_temperature;BME280_humidity;BME280_pressure;Samples;Min_cycle;Max_cycle;Signal;HPM_P1;HPM_P2
2023/11/21 00:00:28;;;;;;;12.18;6.75;;;;;;;;;;5094762;28;20052;-60
2023/11/21 00:02:55;;;;;;;10.27;5.45;;;;;;;;;;5094825;28;20052;-60
2023/11/21 00:05:23;;;;;;;15.40;8.35;;;;;;;;;;5094671;28;20052;-60
2023/11/21 00:07:50;;;;;;;7.68;5.32;;;;;;;;;;5095117;28;20052;-60
2023/11/21 00:10:18;;;;;;;8.00;5.07;;;;;;;;;;5094792;28;20055;-60
2023/11/21 00:12:44;;;;;;;7.13;5.10;;;;;;;;;;5094746;28;20059;-59
2023/11/21 00:15:12;;;;;;;9.98;5.00;;;;;;;;;;5094486;28;20055;-59
2023/11/21 00:17:39;;;;;;;11.80;5.80;;;;;;;;;;5094530;28;20473;-59
2023/11/21 00:20:07;;;;;;;8.18;5.03;;;;;;;;;;5094359;28;20059;-59
2023/11/21 00:22:34;;;;;;;9.95;5.20;;;;;;;;;;5094313;28;20060;-59
2023/11/21 00:25:01;;;;;;;9.27;5.38;;;;;;;;;;5094504;28;20052;-60
2023/11/21 00:27:27;;;;;;;8.70;5.38;;;;;;;;;;5094440;28;20068;-59
2023/11/21 00:29:54;;;;;;;9.50;5.03;;;;;;;;;;5094182;28;20544;-60
2023/11/21 00:32:22;;;;;;;10.85;4.50;;;;;;;;;;5105271;28;20059;-60
2023/11/21 00:34:49;;;;;;;9.77;4.68;;;;;;;;;;5114865;28;20052;-60
2023/11/21 00:37:16;;;;;;;8.25;4.97;;;;;;;;;;5114423;28;20395;-59
2023/11/21 00:39:43;;;;;;;7.55;4.47;;;;;;;;;;5114638;28;20429;-60
2023/11/21 00:42:10;;;;;;;6.63;4.78;;;;;;;;;;5114349;28;20055;-60
2023/11/21 00:44:38;;;;;;;8.02;4.18;;;;;;;;;;5114583;28;20048;-60
2023/11/21 00:47:05;;;;;;;8.70;4.85;;;;;;;;;;5114344;28;20055;-60
2023/11/21 00:49:33;;;;;;;8.45;4.90;;;;;;;;;;5114353;28;20431;-60
2023/11/21 00:52:00;;;;;;;9.02;4.90;;;;;;;;;;5113762;28;20059;-60
2023/11/21 00:54:28;;;;;;;10.13;4.68;;;;;;;;;;5114083;28;20066;-60
2023/11/21 00:56:54;;;;;;;9.57;4.70;;;;;;;;;;5113939;28;20048;-60
2023/11/21 00:59:22;;;;;;;7.50;4.80;;;;;;;;;;5114294;28;20054;-60
2023/11/21 01:01:49;;;;;;;9.85;5.20;;;;;;;;;;5113931;28;20058;-61
2023/11/21 01:04:16;;;;;;;6.40;4.60;;;;;;;;;;5114011;28;20048;-60
2023/11/21 01:06:45;;;;;;;5.47;4.13;;;;;;;;;;5113936;28;20051;-60
2023/11/21 01:09:12;;;;;;;13.05;6.35;;;;;;;;;;5113822;28;20503;-60
2023/11/21 01:11:39;;;;;;;7.18;5.00;;;;;;;;;;5113956;28;20059;-60
2023/11/21 01:14:06;;;;;;;10.93;5.22;;;;;;;;;;5114056;28;20051;-60
2023/11/21 01:16:33;;;;;;;8.23;4.97;;;;;;;;;;5113801;28;20480;-61
2023/11/21 01:19:00;;;;;;;9.38;5.32;;;;;;;;;;5113992;28;20051;-61
2023/11/21 01:21:27;;;;;;;9.60;5.05;;;;;;;;;;5113480;28;20138;-60
2023/11/21 01:23:56;;;;;;;7.88;4.72;;;;;;;;;;5113325;28;20062;-60
2023/11/21 01:26:22;;;;;;;6.88;5.07;;;;;;;;;;5112540;28;20051;-60
2023/11/21 01:28:49;;;;;;;13.02;5.07;;;;;;;;;;5109484;28;20052;-60
2023/11/21 01:31:16;;;;;;;10.40;5.30;;;;;;;;;;5095026;28;20059;-61
2023/11/21 01:33:43;;;;;;;6.65;5.00;;;;;;;;;;5113177;28;20058;-60
2023/11/21 01:36:10;;;;;;;8.35;5.35;;;;;;;;;;5113310;28;20055;-60
2023/11/21 01:38:37;;;;;;;8.90;4.93;;;;;;;;;;5113459;28;20491;-61
2023/11/21 01:41:06;;;;;;;8.02;5.35;;;;;;;;;;5113588;28;20481;-61
2023/11/21 01:43:33;;;;;;;8.65;4.68;;;;;;;;;;5113387;28;20056;-61
2023/11/21 01:46:00;;;;;;;10.75;5.70;;;;;;;;;;5113137;28;20044;-61
2023/11/21 01:48:28;;;;;;;12.63;6.57;;;;;;;;;;5112987;28;20055;-60
2023/11/21 01:50:55;;;;;;;11.32;6.38;;;;;;;;;;5112658;28;20412;-61
2023/11/21 01:53:22;;;;;;;9.00;5.95;;;;;;;;;;5113072;28;20051;-60
2023/11/21 01:55:49;;;;;;;10.70;7.53;;;;;;;;;;5112883;28;20051;-61
2023/11/21 01:58:17;;;;;;;9.02;5.75;;;;;;;;;;5112975;28;20373;-61
2023/11/21 02:00:43;;;;;;;10.18;5.80;;;;;;;;;;5112742;28;20054;-61
2023/11/21 02:03:10;;;;;;;11.60;6.78;;;;;;;;;;5113036;28;20369;-61
2023/11/21 02:05:37;;;;;;;12.55;6.78;;;;;;;;;;5113011;28;20056;-61
2023/11/21 02:08:04;;;;;;;11.38;6.40;;;;;;;;;;5112696;28;20055;-61
2023/11/21 02:10:31;;;;;;;9.43;6.13;;;;;;;;;;5112475;28;20070;-60
2023/11/21 02:13:00;;;;;;;12.15;5.80;;;;;;;;;;5112781;28;20051;-60
2023/11/21 02:15:28;;;;;;;11.50;6.53;;;;;;;;;;5112264;28;20074;-61
2023/11/21 02:17:57;;;;;;;12.52;6.68;;;;;;;;;;5112798;28;20487;-61
2023/11/21 02:20:26;;;;;;;9.98;6.28;;;;;;;;;;5113157;28;20051;-61
2023/11/21 02:22:57;;;;;;;11.35;7.05;;;;;;;;;;5112025;28;20048;-61
2023/11/21 02:25:24;;;;;;;10.15;6.30;;;;;;;;;;5112688;28;20051;-61
2023/11/21 02:27:51;;;;;;;8.27;6.20;;;;;;;;;;5112870;28;20068;-61
2023/11/21 02:30:18;;;;;;;8.27;5.93;;;;;;;;;;5112686;28;20047;-60
2023/11/21 02:32:48;;;;;;;9.20;5.90;;;;;;;;;;5112377;28;20055;-60
2023/11/21 02:35:15;;;;;;;11.75;6.93;;;;;;;;;;5112417;28;20054;-61
2023/11/21 02:37:42;;;;;;;11.25;7.22;;;;;;;;;;5112502;28;20055;-61
2023/11/21 02:40:12;;;;;;;11.85;7.97;;;;;;;;;;5112490;28;20057;-60
2023/11/21 02:42:39;;;;;;;11.63;7.45;;;;;;;;;;5112216;28;20047;-60
2023/11/21 02:45:06;;;;;;;10.98;7.57;;;;;;;;;;5112050;28;20047;-60
2023/11/21 02:47:34;;;;;;;11.18;7.45;;;;;;;;;;5112642;28;20427;-60
2023/11/21 02:50:00;;;;;;;9.82;6.80;;;;;;;;;;5112511;28;20063;-61
2023/11/21 02:52:27;;;;;;;10.32;6.55;;;;;;;;;;5112137;28;20051;-61
2023/11/21 02:54:54;;;;;;;10.10;6.18;;;;;;;;;;5112100;28;20059;-61
2023/11/21 02:57:22;;;;;;;11.52;7.97;;;;;;;;;;5112495;28;20059;-61
2023/11/21 02:59:50;;;;;;;11.48;7.15;;;;;;;;;;5112034;28;20055;-61
2023/11/21 03:02:17;;;;;;;9.52;7.20;;;;;;;;;;5116366;28;20062;-61
2023/11/21 03:04:43;;;;;;;12.73;7.45;;;;;;;;;;5116126;28;20052;-60
2023/11/21 03:07:10;;;;;;;12.07;7.65;;;;;;;;;;5116302;28;20388;-61
2023/11/21 03:09:37;;;;;;;11.57;7.60;;;;;;;;;;5115956;28;20062;-60
2023/11/21 03:12:04;;;;;;;18.30;9.15;;;;;;;;;;5116078;28;20086;-60
2023/11/21 03:14:33;;;;;;;17.33;10.18;;;;;;;;;;5116066;28;20062;-61
2023/11/21 03:17:00;;;;;;;9.20;6.93;;;;;;;;;;5115981;28;20055;-61
2023/11/21 03:19:27;;;;;;;14.63;8.50;;;;;;;;;;5115659;28;20048;-60
2023/11/21 03:21:54;;;;;;;11.30;8.00;;;;;;;;;;5115849;28;20055;-61
2023/11/21 03:24:22;;;;;;;10.20;8.27;;;;;;;;;;5095465;28;20048;-60
2023/11/21 03:26:51;;;;;;;10.25;7.75;;;;;;;;;;5095241;28;20055;-60
2023/11/21 03:29:18;;;;;;;13.98;8.43;;;;;;;;;;5095506;28;20063;-61
2023/11/21 03:31:46;;;;;;;12.27;8.43;;;;;;;;;;5095705;28;20051;-61
2023/11/21 03:34:15;;;;;;;11.65;8.48;;;;;;;;;;5095842;28;20453;-61
2023/11/21 03:36:42;;;;;;;12.63;8.45;;;;;;;;;;5095115;28;20052;-61
2023/11/21 03:39:09;;;;;;;13.02;8.30;;;;;;;;;;5095534;28;20063;-61
2023/11/21 03:41:36;;;;;;;10.35;7.28;;;;;;;;;;5095484;28;20052;-61
2023/11/21 03:44:03;;;;;;;19.08;10.70;;;;;;;;;;5095006;28;20056;-60
2023/11/21 03:46:30;;;;;;;13.13;8.02;;;;;;;;;;5095280;28;20044;-61
2023/11/21 03:48:58;;;;;;;10.15;7.35;;;;;;;;;;5095395;28;20052;-61
2023/11/21 03:51:24;;;;;;;9.88;7.45;;;;;;;;;;5095469;28;20413;-61
2023/11/21 03:53:51;;;;;;;11.13;7.72;;;;;;;;;;5095322;28;20052;-61
2023/11/21 03:56:18;;;;;;;9.98;8.05;;;;;;;;;;5094706;28;20052;-60
2023/11/21 03:58:45;;;;;;;13.13;7.97;;;;;;;;;;5095196;28;20063;-61
2023/11/21 04:01:11;;;;;;;10.95;8.05;;;;;;;;;;5095065;28;20052;-61
2023/11/21 04:03:40;;;;;;;13.48;8.45;;;;;;;;;;5095050;28;20478;-61
2023/11/21 04:06:08;;;;;;;14.05;8.38;;;;;;;;;;5094714;28;20048;-61
2023/11/21 04:08:35;;;;;;;13.57;8.98;;;;;;;;;;5095137;28;20047;-61
2023/11/21 04:11:02;;;;;;;12.25;8.98;;;;;;;;;;5094789;28;20052;-61
2023/11/21 04:13:29;;;;;;;14.15;9.10;;;;;;;;;;5094270;28;20059;-61
2023/11/21 04:15:56;;;;;;;12.75;8.63;;;;;;;;;;5094720;28;20483;-61
2023/11/21 04:18:23;;;;;;;14.18;9.20;;;;;;;;;;5094550;28;20062;-61
2023/11/21 04:20:50;;;;;;;13.48;9.25;;;;;;;;;;5094698;28;20071;-61
2023/11/21 04:23:19;;;;;;;16.40;10.05;;;;;;;;;;5105453;28;20066;-61
2023/11/21 04:25:46;;;;;;;14.93;8.40;;;;;;;;;;5115156;28;20416;-61
2023/11/21 04:28:13;;;;;;;11.43;8.70;;;;;;;;;;5114928;28;20214;-61
2023/11/21 04:30:40;;;;;;;14.18;8.90;;;;;;;;;;5114592;28;20058;-61
2023/11/21 04:33:07;;;;;;;10.65;8.35;;;;;;;;;;5114711;28;20055;-61
2023/11/21 04:35:34;;;;;;;11.60;8.25;;;;;;;;;;5114786;28;20043;-61
2023/11/21 04:38:01;;;;;;;11.90;9.18;;;;;;;;;;5114552;28;20071;-61
2023/11/21 04:40:29;;;;;;;12.05;8.70;;;;;;;;;;5114494;28;20059;-61
2023/11/21 04:42:57;;;;;;;13.40;8.68;;;;;;;;;;5114407;28;20051;-61
2023/11/21 04:45:23;;;;;;;12.88;9.00;;;;;;;;;;5114482;28;20051;-61
2023/11/21 04:47:53;;;;;;;13.65;9.10;;;;;;;;;;5114356;28;20062;-61
2023/11/21 04:50:20;;;;;;;;;;;;;;;;;;5114570;28;20055;-61
2023/11/21 04:52:47;;;;;;;14.20;9.63;;;;;;;;;;5114023;28;20324;-61
2023/11/21 04:55:15;;;;;;;11.73;8.48;;;;;;;;;;5114297;28;20443;-61
2023/11/21 04:57:43;;;;;;;14.38;9.75;;;;;;;;;;5114009;28;20055;-61
2023/11/21 05:00:10;;;;;;;12.98;9.20;;;;;;;;;;5114264;28;20122;-61
2023/11/21 05:02:38;;;;;;;14.77;10.20;;;;;;;;;;5113807;28;20401;-61
2023/11/21 05:05:05;;;;;;;14.35;10.55;;;;;;;;;;5113665;28;20047;-61
2023/11/21 05:07:35;;;;;;;15.20;10.75;;;;;;;;;;5113996;28;20399;-61
2023/11/21 05:10:03;;;;;;;15.48;10.90;;;;;;;;;;5114223;28;20066;-60
2023/11/21 05:12:33;;;;;;;16.50;11.15;;;;;;;;;;5114021;28;20052;-61
2023/11/21 05:15:03;;;;;;;17.08;10.38;;;;;;;;;;5113791;28;20047;-61
2023/11/21 05:17:29;;;;;;;14.55;9.82;;;;;;;;;;5113594;28;20377;-61
2023/11/21 05:19:56;;;;;;;15.05;9.88;;;;;;;;;;5113803;28;20439;-61
2023/11/21 05:22:23;;;;;;;15.73;9.70;;;;;;;;;;5113225;28;20059;-61
2023/11/21 05:24:50;;;;;;;15.20;9.57;;;;;;;;;;5112706;28;20404;-61
2023/11/21 05:27:17;;;;;;;15.27;9.93;;;;;;;;;;5113458;28;20453;-61
2023/11/21 05:29:44;;;;;;;16.95;11.20;;;;;;;;;;5113548;28;20056;-61
2023/11/21 05:32:14;;;;;;;18.08;11.45;;;;;;;;;;5113261;28;20059;-60
2023/11/21 05:34:41;;;;;;;16.48;11.15;;;;;;;;;;5113774;28;20048;-60
2023/11/21 05:37:07;;;;;;;16.58;10.85;;;;;;;;;;5112667;28;20052;-61
2023/11/21 05:39:35;;;;;;;12.98;9.90;;;;;;;;;;5113414;28;20063;-60
2023/11/21 05:42:03;;;;;;;14.60;10.18;;;;;;;;;;5113285;28;20496;-61
2023/11/21 05:44:30;;;;;;;14.20;9.30;;;;;;;;;;5113609;28;20059;-61
2023/11/21 05:46:58;;;;;;;15.05;9.75;;;;;;;;;;5113101;28;20051;-60
2023/11/21 05:49:26;;;;;;;15.50;10.25;;;;;;;;;;5113089;28;20358;-61
2023/11/21 05:51:54;;;;;;;15.15;10.25;;;;;;;;;;5112922;28;20412;-60
2023/11/21 05:54:21;;;;;;;13.73;10.43;;;;;;;;;;5113180;28;20404;-60
2023/11/21 05:56:49;;;;;;;15.60;11.30;;;;;;;;;;5112881;28;20396;-61
2023/11/21 05:59:16;;;;;;;16.92;11.10;;;;;;;;;;5112831;28;20055;-62
2023/11/21 06:01:42;;;;;;;17.67;11.07;;;;;;;;;;5112671;28;20409;-61
2023/11/21 06:04:10;;;;;;;15.45;10.05;;;;;;;;;;5113054;28;20465;-62
2023/11/21 06:06:38;;;;;;;15.95;9.70;;;;;;;;;;5113000;28;20382;-60
2023/11/21 06:09:08;;;;;;;14.18;10.02;;;;;;;;;;5112883;28;20055;-60
2023/11/21 06:11:35;;;;;;;;;;;;;;;;;;5113284;28;20419;-60
2023/11/21 06:14:02;;;;;;;15.35;10.43;;;;;;;;;;5112275;28;19927;-60
2023/11/21 06:16:29;;;;;;;19.20;10.23;;;;;;;;;;5112746;28;20048;-60
2023/11/21 06:18:55;;;;;;;22.83;13.13;;;;;;;;;;5112679;28;20055;-60
2023/11/21 06:21:22;;;;;;;14.57;9.82;;;;;;;;;;5112682;28;20055;-59
2023/11/21 06:23:52;;;;;;;16.17;10.55;;;;;;;;;;5112187;28;20177;-61
2023/11/21 06:26:20;;;;;;;21.60;11.45;;;;;;;;;;5112316;28;20055;-60
2023/11/21 06:28:47;;;;;;;16.35;10.73;;;;;;;;;;5112209;28;20047;-60
2023/11/21 06:31:14;;;;;;;14.55;10.02;;;;;;;;;;5112287;28;20052;-61
2023/11/21 06:33:41;;;;;;;15.85;9.70;;;;;;;;;;5112817;28;20062;-60
2023/11/21 06:36:08;;;;;;;15.57;10.32;;;;;;;;;;5111869;28;20060;-60
2023/11/21 06:38:35;;;;;;;16.50;10.40;;;;;;;;;;5112660;28;20047;-60
2023/11/21 06:41:04;;;;;;;16.50;10.30;;;;;;;;;;5112435;28;20476;-60
2023/11/21 06:43:31;;;;;;;18.55;11.38;;;;;;;;;;5112744;28;20063;-60
2023/11/21 06:45:58;;;;;;;15.35;11.10;;;;;;;;;;5112575;28;20059;-60
2023/11/21 06:48:25;;;;;;;15.27;10.13;;;;;;;;;;5112407;28;20047;-61
2023/11/21 06:50:52;;;;;;;17.08;9.45;;;;;;;;;;5112272;28;20389;-60
2023/11/21 06:53:19;;;;;;;14.70;10.13;;;;;;;;;;5112059;28;20056;-60
2023/11/21 06:55:46;;;;;;;15.02;10.95;;;;;;;;;;5112502;28;20047;-60
2023/11/21 06:58:15;;;;;;;14.80;10.93;;;;;;;;;;5112248;28;20047;-61
2023/11/21 07:00:46;;;;;;;14.27;10.45;;;;;;;;;;5112543;28;20435;-60
2023/11/21 07:03:13;;;;;;;14.85;10.00;;;;;;;;;;5112387;28;20055;-60
2023/11/21 07:05:39;;;;;;;16.65;10.85;;;;;;;;;;5112283;28;20047;-60
2023/11/21 07:08:07;;;;;;;16.95;10.50;;;;;;;;;;5112314;28;20392;-60
2023/11/21 07:10:34;;;;;;;16.75;11.13;;;;;;;;;;5111852;28;20071;-60
2023/11/21 07:13:01;;;;;;;14.88;10.75;;;;;;;;;;5112351;28;20261;-60
2023/11/21 07:15:29;;;;;;;14.85;10.00;;;;;;;;;;5112414;28;20439;-60
2023/11/21 07:17:56;;;;;;;16.17;10.18;;;;;;;;;;5112164;28;20070;-60
2023/11/21 07:20:23;;;;;;;15.63;11.02;;;;;;;;;;5111962;28;20059;-60
2023/11/21 07:22:50;;;;;;;14.02;9.85;;;;;;;;;;5111912;28;20055;-60
2023/11/21 07:25:17;;;;;;;16.58;10.05;;;;;;;;;;5111795;28;20067;-61
2023/11/21 07:27:44;;;;;;;18.08;13.05;;;;;;;;;;5111851;28;20070;-60
2023/11/21 07:30:13;;;;;;;17.60;11.82;;;;;;;;;;5111878;28;20047;-60
2023/11/21 07:32:41;;;;;;;14.25;9.60;;;;;;;;;;5112116;28;20402;-60
2023/11/21 07:35:08;;;;;;;17.67;11.00;;;;;;;;;;5111707;28;20063;-60
2023/11/21 07:37:35;;;;;;;20.73;11.65;;;;;;;;;;5112119;28;20044;-61
2023/11/21 07:40:02;;;;;;;15.88;10.52;;;;;;;;;;5112035;28;20051;-60
2023/11/21 07:42:29;;;;;;;13.57;10.05;;;;;;;;;;5111844;28;20074;-60
2023/11/21 07:44:56;;;;;;;18.73;11.65;;;;;;;;;;5111621;28;20060;-60
2023/11/21 07:47:26;;;;;;;14.75;10.35;;;;;;;;;;5112747;28;20503;-60
2023/11/21 07:49:56;;;;;;;16.60;11.48;;;;;;;;;;5115588;28;20047;-59
2023/11/21 07:52:23;;;;;;;17.65;12.55;;;;;;;;;;5115412;28;20048;-60
2023/11/21 07:54:53;;;;;;;15.27;11.48;;;;;;;;;;5115794;28;20058;-59
2023/11/21 07:57:20;;;;;;;18.58;12.73;;;;;;;;;;5115213;28;20058;-60
2023/11/21 07:59:46;;;;;;;18.80;12.32;;;;;;;;;;5115440;28;20503;-59
2023/11/21 08:02:14;;;;;;;20.65;12.48;;;;;;;;;;5115200;28;20056;-60
2023/11/21 08:04:41;;;;;;;20.73;13.10;;;;;;;;;;5115238;28;20055;-59
2023/11/21 08:07:09;;;;;;;20.30;11.90;;;;;;;;;;5115153;28;20059;-60
2023/11/21 08:12:42;;;;;;;18.33;12.00;;;;;;;;;;5115132;28;20470;-60
2023/11/21 08:15:10;;;;;;;16.30;11.68;;;;;;;;;;5114881;28;20125;-60
2023/11/21 08:17:37;;;;;;;19.77;11.50;;;;;;;;;;5114671;28;20381;-60
2023/11/21 08:20:04;;;;;;;18.65;11.27;;;;;;;;;;5115030;28;20054;-60
2023/11/21 08:22:34;;;;;;;19.33;13.02;;;;;;;;;;4855289;28;21793;-60
2023/11/21 08:25:00;;;;;;;20.98;11.88;;;;;;;;;;4062839;28;22667;-61
2023/11/21 08:27:27;;;;;;;18.17;12.55;;;;;;;;;;4426754;28;20483;-61
2023/11/21 08:29:54;;;;;;;15.15;10.70;;;;;;;;;;5114828;28;20055;-60
2023/11/21 08:32:21;;;;;;;17.13;11.50;;;;;;;;;;5114375;28;20062;-61
2023/11/21 08:34:50;;;;;;;25.02;12.98;;;;;;;;;;5114293;28;20062;-61
2023/11/21 08:37:17;;;;;;;19.25;12.25;;;;;;;;;;5114698;28;20460;-61
2023/11/21 08:39:45;;;;;;;17.02;12.13;;;;;;;;;;5114809;28;20480;-61
2023/11/21 08:42:12;;;;;;;20.17;14.13;;;;;;;;;;5114369;28;20058;-61
2023/11/21 08:44:39;;;;;;;19.02;12.55;;;;;;;;;;5114561;28;20428;-61
2023/11/21 08:47:06;;;;;;;19.83;13.02;;;;;;;;;;5114089;28;20048;-61
2023/11/21 08:49:33;;;;;;;17.50;10.90;;;;;;;;;;5114757;28;20063;-61
2023/11/21 08:52:00;;;;;;;20.90;12.05;;;;;;;;;;5114047;28;20488;-61
2023/11/21 08:54:27;;;;;;;18.35;13.07;;;;;;;;;;5114059;28;20058;-61
2023/11/21 08:56:55;;;;;;;21.60;12.88;;;;;;;;;;5114505;28;20055;-61
2023/11/21 08:59:22;;;;;;;20.98;13.60;;;;;;;;;;5114288;28;20457;-61
2023/11/21 09:01:49;;;;;;;21.42;13.45;;;;;;;;;;5113613;28;20101;-61
2023/11/21 09:04:15;;;;;;;23.88;14.60;;;;;;;;;;5114324;28;20052;-61
2023/11/21 09:06:42;;;;;;;20.63;13.98;;;;;;;;;;5114225;28;20473;-60
2023/11/21 09:09:10;;;;;;;21.92;13.55;;;;;;;;;;5114368;28;20476;-61
2023/11/21 09:11:36;;;;;;;24.65;16.38;;;;;;;;;;5113786;28;20167;-60
2023/11/21 09:14:04;;;;;;;21.90;15.18;;;;;;;;;;5114189;28;20056;-61
2023/11/21 09:16:32;;;;;;;22.50;14.93;;;;;;;;;;5113894;28;20484;-61
2023/11/21 09:18:59;;;;;;;27.02;17.17;;;;;;;;;;5113865;28;20050;-61
2023/11/21 09:21:26;;;;;;;21.95;14.65;;;;;;;;;;5113593;28;20417;-61
2023/11/21 09:23:54;;;;;;;25.95;15.73;;;;;;;;;;5114280;28;20051;-60
2023/11/21 09:26:20;;;;;;;24.42;13.88;;;;;;;;;;5113352;28;20048;-61
2023/11/21 09:28:47;;;;;;;26.05;15.95;;;;;;;;;;5113477;28;20059;-61
2023/11/21 09:31:16;;;;;;;25.75;14.68;;;;;;;;;;5113895;28;20059;-60
2023/11/21 09:33:43;;;;;;;25.45;15.40;;;;;;;;;;5096971;28;20055;-61
2023/11/21 09:36:12;;;;;;;23.45;15.88;;;;;;;;;;5113281;28;20055;-61
2023/11/21 09:38:41;;;;;;;;;;;;;;;;;;5114130;28;20381;-61
2023/11/21 09:41:17;;;;;;;23.73;14.77;;;;;;;;;;5113263;28;19923;-61
2023/11/21 09:43:46;;;;;;;23.13;15.43;;;;;;;;;;5113532;28;20059;-61
2023/11/21 09:46:19;;;;;;;;;;;;;;;;;;5113990;28;20382;-61
2023/11/21 09:48:50;;;;;;;23.45;15.57;;;;;;;;;;5113570;28;19919;-61
2023/11/21 09:51:19;;;;;;;24.63;16.33;;;;;;;;;;5113647;28;20382;-61
2023/11/21 09:53:47;;;;;;;29.85;18.77;;;;;;;;;;5113394;28;20507;-60
2023/11/21 09:56:19;;;;;;;25.77;15.75;;;;;;;;;;5113189;28;20066;-61
2023/11/21 09:58:46;;;;;;;29.02;18.25;;;;;;;;;;5113547;28;20043;-60
2023/11/21 10:01:14;;;;;;;28.63;18.35;;;;;;;;;;5113279;28;20047;-61
2023/11/21 10:03:42;;;;;;;28.23;17.60;;;;;;;;;;5113509;28;20425;-61
2023/11/21 10:06:10;;;;;;;34.58;21.02;;;;;;;;;;5112629;28;20051;-61
2023/11/21 10:08:37;;;;;;;28.90;18.63;;;;;;;;;;5113402;28;20059;-61
2023/11/21 10:11:06;;;;;;;32.80;19.48;;;;;;;;;;5112097;28;20055;-60
2023/11/21 10:13:34;;;;;;;27.17;17.50;;;;;;;;;;5113255;28;20051;-60
2023/11/21 10:16:05;;;;;;;29.83;19.58;;;;;;;;;;5112559;28;20048;-62
2023/11/21 10:18:34;;;;;;;29.73;18.67;;;;;;;;;;5112680;28;20047;-61
2023/11/21 10:21:01;;;;;;;29.48;19.23;;;;;;;;;;5112663;28;20062;-61
2023/11/21 10:23:28;;;;;;;30.55;19.27;;;;;;;;;;5113154;28;20044;-60
2023/11/21 12:42:38;;;;;;;18.42;12.93;;;;;;;;;;5110429;27;20733;-60
2023/11/21 12:51:12;;;;;;;16.88;12.10;;;;;;;;;;5110379;28;20040;-61
2023/11/21 12:53:39;;;;;;;17.33;11.45;;;;;;;;;;5109696;28;20059;-60
2023/11/21 12:56:09;;;;;;;19.33;12.02;;;;;;;;;;5109505;28;20479;-60
2023/11/21 12:58:39;;;;;;;16.88;12.07;;;;;;;;;;5109949;28;20051;-60
2023/11/21 13:01:11;;;;;;;14.90;10.80;;;;;;;;;;5109588;28;20058;-60
2023/11/21 13:03:39;;;;;;;15.73;10.85;;;;;;;;;;5109682;28;20415;-60
2023/11/21 13:06:07;;;;;;;15.15;11.75;;;;;;;;;;5109778;28;20404;-60
2023/11/21 13:08:34;;;;;;;16.08;11.57;;;;;;;;;;5109937;28;20058;-60
2023/11/21 13:11:01;;;;;;;18.13;12.75;;;;;;;;;;5109546;28;20044;-60
2023/11/21 13:13:29;;;;;;;17.27;11.93;;;;;;;;;;5109335;28;20058;-60
2023/11/21 13:16:00;;;;;;;16.67;12.30;;;;;;;;;;5109820;28;20048;-60
2023/11/21 13:18:28;;;;;;;17.30;12.30;;;;;;;;;;5109547;28;20055;-60
2023/11/21 13:20:56;;;;;;;15.57;11.65;;;;;;;;;;5109316;28;20054;-60
2023/11/21 13:23:23;;;;;;;17.92;11.00;;;;;;;;;;5108967;28;20052;-60
2023/11/21 13:25:50;;;;;;;16.95;12.13;;;;;;;;;;5109264;28;20059;-59
2023/11/21 13:28:18;;;;;;;13.98;10.80;;;;;;;;;;5108952;28;20059;-59
2023/11/21 13:30:45;;;;;;;17.02;11.88;;;;;;;;;;5109426;28;20052;-60
2023/11/21 13:33:17;;;;;;;18.55;13.13;;;;;;;;;;5109348;28;20048;-61
2023/11/21 13:35:47;;;;;;;17.58;11.98;;;;;;;;;;5109327;28;20055;-60
2023/11/21 13:38:16;;;;;;;16.80;11.98;;;;;;;;;;5108760;28;20048;-59
2023/11/21 13:40:49;;;;;;;20.35;13.35;;;;;;;;;;5108804;28;20056;-60
2023/11/21 13:43:18;;;;;;;17.23;11.52;;;;;;;;;;5109220;28;20393;-60
2023/11/21 13:45:45;;;;;;;17.85;12.65;;;;;;;;;;5108964;28;20051;-60
2023/11/21 13:48:14;;;;;;;14.95;11.10;;;;;;;;;;5108804;28;20440;-60
2023/11/21 13:50:48;;;;;;;15.63;11.05;;;;;;;;;;5108718;28;20052;-60
2023/11/21 13:53:21;;;;;;;15.70;11.35;;;;;;;;;;5099204;28;20072;-60
2023/11/21 13:55:49;;;;;;;15.30;11.05;;;;;;;;;;5095060;28;20056;-60
2023/11/21 13:58:22;;;;;;;15.63;11.65;;;;;;;;;;5095080;28;20056;-60
2023/11/21 14:00:56;;;;;;;18.10;14.00;;;;;;;;;;5095195;28;20048;-60
2023/11/21 14:03:32;;;;;;;16.63;14.25;;;;;;;;;;5095223;28;20055;-60
2023/11/21 14:06:00;;;;;;;16.20;11.57;;;;;;;;;;5094829;28;20056;-60
2023/11/21 14:08:28;;;;;;;17.13;11.80;;;;;;;;;;5095028;28;20056;-60
2023/11/21 14:10:57;;;;;;;15.23;11.77;;;;;;;;;;5095129;28;20059;-60
2023/11/21 14:13:24;;;;;;;17.92;12.60;;;;;;;;;;5095164;28;20393;-60
2023/11/21 14:15:57;;;;;;;13.00;9.27;;;;;;;;;;5095047;28;20044;-59
2023/11/21 14:18:30;;;;;;;17.33;10.77;;;;;;;;;;5095020;28;20051;-60
2023/11/21 14:20:57;;;;;;;15.18;10.48;;;;;;;;;;5094641;28;20060;-60
2023/11/21 14:23:24;;;;;;;12.98;9.45;;;;;;;;;;5094346;28;20411;-60
2023/11/21 14:25:51;;;;;;;14.40;10.18;;;;;;;;;;5094555;28;20067;-60
2023/11/21 14:28:18;;;;;;;14.23;10.30;;;;;;;;;;5094713;28;20404;-60
2023/11/21 14:30:46;;;;;;;15.23;10.00;;;;;;;;;;5094357;28;20074;-60
2023/11/21 14:33:13;;;;;;;12.18;9.32;;;;;;;;;;5094720;28;20370;-60
2023/11/21 14:35:41;;;;;;;12.63;9.13;;;;;;;;;;5094483;28;20051;-60
2023/11/21 14:38:09;;;;;;;16.10;11.68;;;;;;;;;;5094022;28;20063;-60
2023/11/21 14:40:36;;;;;;;17.05;9.88;;;;;;;;;;5093790;28;20048;-60
2023/11/21 14:43:05;;;;;;;11.30;8.93;;;;;;;;;;5094105;28;20044;-59
2023/11/21 14:45:32;;;;;;;12.80;9.15;;;;;;;;;;5094298;28;20388;-60
2023/11/21 14:48:05;;;;;;;10.48;7.88;;;;;;;;;;5093952;28;20063;-60
2023/11/21 14:50:48;;;;;;;14.10;10.48;;;;;;;;;;5094193;28;20404;-60
2023/11/21 14:53:17;;;;;;;11.40;9.20;;;;;;;;;;5094071;28;20044;-60
2023/11/21 14:55:57;;;;;;;10.02;8.25;;;;;;;;;;5093737;28;20132;-60
2023/11/21 14:58:27;;;;;;;10.15;8.07;;;;;;;;;;5093992;28;20385;-60
2023/11/21 15:00:57;;;;;;;;;;;;;;;;;;5094536;28;20063;-60
2023/11/21 15:03:42;;;;;;;10.13;8.15;;;;;;;;;;5093393;28;19920;-61
2023/11/21 15:06:26;;;;;;;8.57;7.28;;;;;;;;;;5093111;28;20059;-60
2023/11/21 15:11:42;;;;;;;9.65;7.85;;;;;;;;;;5076146;28;20052;-60
2023/11/21 15:14:09;;;;;;;10.95;8.25;;;;;;;;;;5093844;28;20412;-60
2023/11/21 15:16:40;;;;;;;12.73;10.88;;;;;;;;;;5093685;28;20052;-60
2023/11/21 15:19:06;;;;;;;12.93;11.48;;;;;;;;;;5093683;28;20052;-60
2023/11/21 15:21:33;;;;;;;15.98;13.55;;;;;;;;;;5093203;28;20487;-60
2023/11/21 15:24:02;;;;;;;15.02;12.82;;;;;;;;;;5092962;28;20048;-61
2023/11/21 15:26:29;;;;;;;15.48;13.75;;;;;;;;;;5093488;28;20054;-59
2023/11/21 15:28:56;;;;;;;17.30;14.60;;;;;;;;;;5093236;28;20055;-60
2023/11/21 15:31:24;;;;;;;13.93;12.48;;;;;;;;;;5093320;28;20063;-60
2023/11/21 15:33:51;;;;;;;16.05;13.85;;;;;;;;;;5092985;28;20063;-59
2023/11/21 15:36:19;;;;;;;14.13;12.10;;;;;;;;;;5093025;28;20052;-59
2023/11/21 15:38:46;;;;;;;15.65;13.98;;;;;;;;;;5092825;28;20048;-60
2023/11/21 15:41:14;;;;;;;18.30;15.75;;;;;;;;;;5092769;28;20056;-60
2023/11/21 15:43:41;;;;;;;20.33;16.70;;;;;;;;;;5092884;28;20056;-60
2023/11/21 15:46:08;;;;;;;18.38;16.05;;;;;;;;;;5093061;28;20369;-60
2023/11/21 15:48:35;;;;;;;18.33;16.40;;;;;;;;;;5092710;28;20132;-59
2023/11/21 15:51:04;;;;;;;19.73;17.63;;;;;;;;;;5092946;28;20075;-62
2023/11/21 15:53:32;;;;;;;21.27;18.57;;;;;;;;;;5093123;28;20056;-61
2023/11/21 15:56:01;;;;;;;20.58;18.23;;;;;;;;;;5093045;28;20055;-61
2023/11/21 15:58:29;;;;;;;20.20;17.38;;;;;;;;;;5092759;28;20052;-61
2023/11/21 16:00:57;;;;;;;17.83;15.75;;;;;;;;;;5092890;28;20074;-61
2023/11/21 16:03:24;;;;;;;17.15;14.93;;;;;;;;;;5092369;28;20048;-61
2023/11/21 16:05:50;;;;;;;18.27;15.38;;;;;;;;;;5092394;28;20066;-62
2023/11/21 16:08:18;;;;;;;15.68;13.98;;;;;;;;;;5092274;28;20047;-59
2023/11/21 16:10:44;;;;;;;15.10;13.50;;;;;;;;;;5092616;28;20074;-59
2023/11/21 16:13:13;;;;;;;16.42;14.02;;;;;;;;;;5092613;28;20381;-60
2023/11/21 16:15:42;;;;;;;16.83;13.95;;;;;;;;;;5091988;28;20052;-60
2023/11/21 16:18:09;;;;;;;15.05;13.50;;;;;;;;;;5092511;28;20052;-59
2023/11/21 16:20:36;;;;;;;14.75;13.25;;;;;;;;;;5092199;28;20063;-60
2023/11/21 16:23:03;;;;;;;15.77;13.75;;;;;;;;;;5092323;28;20392;-60
2023/11/21 16:25:30;;;;;;;14.23;12.65;;;;;;;;;;5092161;28;20058;-61
2023/11/21 16:28:03;;;;;;;15.27;13.50;;;;;;;;;;5092437;28;20056;-59
2023/11/21 16:30:32;;;;;;;13.95;12.45;;;;;;;;;;5092130;28;20086;-60
2023/11/21 16:33:02;;;;;;;14.52;12.75;;;;;;;;;;5092356;28;20377;-60
2023/11/21 16:35:29;;;;;;;;;;;;;;;;;;5092256;28;20052;-60
2023/11/21 16:37:56;;;;;;;14.98;13.05;;;;;;;;;;5091854;28;20307;-60
2023/11/21 16:40:23;;;;;;;15.23;13.13;;;;;;;;;;5092055;28;20059;-60
2023/11/21 16:42:50;;;;;;;16.25;14.27;;;;;;;;;;5092371;28;20048;-60
2023/11/21 16:45:17;;;;;;;17.35;14.77;;;;;;;;;;5091854;28;20054;-59
2023/11/21 16:47:44;;;;;;;14.95;12.52;;;;;;;;;;5092208;28;20056;-60
2023/11/21 16:50:13;;;;;;;12.48;11.18;;;;;;;;;;5091792;28;20408;-60
2023/11/21 16:52:43;;;;;;;12.15;10.25;;;;;;;;;;5090336;28;20400;-60
2023/11/21 16:55:10;;;;;;;11.73;9.65;;;;;;;;;;5084448;28;20048;-59
2023/11/21 16:57:37;;;;;;;12.40;10.48;;;;;;;;;;5071830;28;20052;-60